Time;durP1;ratioP1;P1;durP2;ratioP2;P2;SDS_P1;SDS_P2;PMS_P1;PMS_P2;Temp;Humidity;BMP_temperature;BMP_pressure;BME280_temperature;BME280_humidity;BME280_pressure;Samples;Min_cycle;Max_cycle;Signal;HPM_P1;HPM_P2
2021/05/28 00:00:19;;;;;;;7.28;0.93;;;;;;;;;;4919995;29;20063;-64
2021/05/28 00:02:45;;;;;;;10.70;1.00;;;;;;;;;;4920836;29;20044;-64
2021/05/28 00:05:11;;;;;;;5.13;0.68;;;;;;;;;;4919871;29;20040;-64
2021/05/28 00:07:37;;;;;;;6.90;0.80;;;;;;;;;;4919719;29;20075;-64
2021/05/28 00:10:04;;;;;;;10.65;1.30;;;;;;;;;;4920749;29;20158;-64
2021/05/28 00:12:30;;;;;;;3.95;0.80;;;;;;;;;;4919351;29;20074;-63
2021/05/28 00:14:56;;;;;;;3.38;0.60;;;;;;;;;;4920563;29;20042;-63
2021/05/28 00:17:22;;;;;;;4.68;0.60;;;;;;;;;;4923207;29;20391;-64
2021/05/28 00:19:48;;;;;;;4.43;0.70;;;;;;;;;;4921499;29;20051;-64
2021/05/28 00:22:14;;;;;;;7.60;0.70;;;;;;;;;;4921259;29;20066;-64
2021/05/28 00:24:39;;;;;;;4.63;0.70;;;;;;;;;;4920433;29;20040;-64
2021/05/28 00:27:05;;;;;;;3.65;0.60;;;;;;;;;;4922395;29;20143;-63
2021/05/28 00:29:31;;;;;;;11.57;0.77;;;;;;;;;;4918085;29;20046;-64
2021/05/28 00:31:57;;;;;;;8.68;0.70;;;;;;;;;;4921227;29;20027;-63
2021/05/28 00:34:23;;;;;;;5.00;0.90;;;;;;;;;;4920990;29;20051;-63
2021/05/28 00:36:49;;;;;;;5.32;0.73;;;;;;;;;;4922515;29;20102;-63
2021/05/28 00:39:15;;;;;;;3.15;0.80;;;;;;;;;;4920205;29;20754;-65
2021/05/28 00:41:40;;;;;;;8.07;0.85;;;;;;;;;;4908542;29;20066;-64
2021/05/28 00:44:07;;;;;;;5.20;0.68;;;;;;;;;;4912817;29;20166;-64
2021/05/28 00:46:32;;;;;;;5.20;0.73;;;;;;;;;;4917800;29;20932;-64
2021/05/28 00:48:58;;;;;;;4.75;0.57;;;;;;;;;;4918404;29;20044;-64
2021/05/28 00:51:24;;;;;;;3.85;0.60;;;;;;;;;;4917684;29;20044;-64
2021/05/28 00:53:50;;;;;;;4.47;0.80;;;;;;;;;;4916777;29;20047;-64
2021/05/28 00:56:16;;;;;;;3.20;0.60;;;;;;;;;;4919715;29;20051;-65
2021/05/28 00:58:42;;;;;;;5.07;0.70;;;;;;;;;;4918105;29;20059;-65
2021/05/28 01:01:08;;;;;;;3.08;0.50;;;;;;;;;;4919333;29;20554;-65
2021/05/28 01:03:34;;;;;;;4.10;0.50;;;;;;;;;;4900171;29;20044;-64
2021/05/28 01:06:01;;;;;;;3.67;0.60;;;;;;;;;;4918358;29;20040;-65
2021/05/28 01:08:26;;;;;;;4.13;0.80;;;;;;;;;;4917260;29;20431;-64
2021/05/28 01:10:52;;;;;;;6.03;0.60;;;;;;;;;;4918363;29;20106;-65
2021/05/28 01:13:18;;;;;;;4.63;0.70;;;;;;;;;;4918111;29;20043;-63
2021/05/28 01:15:44;;;;;;;4.18;0.68;;;;;;;;;;4919792;29;20063;-64
2021/05/28 01:18:10;;;;;;;4.43;0.57;;;;;;;;;;4918479;29;20506;-64
2021/05/28 01:20:36;;;;;;;2.60;0.60;;;;;;;;;;4917595;29;20036;-63
2021/05/28 01:23:03;;;;;;;4.38;0.90;;;;;;;;;;4919654;29;20095;-63
2021/05/28 01:25:30;;;;;;;18.08;0.95;;;;;;;;;;4916274;29;20051;-64
2021/05/28 01:27:56;;;;;;;5.20;0.70;;;;;;;;;;4918437;29;20060;-64
2021/05/28 01:30:23;;;;;;;5.35;0.68;;;;;;;;;;4917001;29;20044;-64
2021/05/28 01:32:49;;;;;;;2.53;0.52;;;;;;;;;;4917608;29;20043;-64
2021/05/28 01:35:15;;;;;;;2.53;0.50;;;;;;;;;;4919203;29;20063;-64
2021/05/28 01:37:41;;;;;;;5.88;0.73;;;;;;;;;;4917872;29;20048;-63
2021/05/28 01:40:08;;;;;;;2.70;0.50;;;;;;;;;;4917095;29;20095;-63
2021/05/28 01:42:33;;;;;;;2.42;0.73;;;;;;;;;;4917543;29;20050;-63
2021/05/28 01:45:01;;;;;;;4.65;0.57;;;;;;;;;;4915986;29;20850;-64
2021/05/28 01:47:27;;;;;;;3.17;0.60;;;;;;;;;;4918362;29;20039;-63
2021/05/28 01:49:53;;;;;;;2.92;0.55;;;;;;;;;;4917566;29;20551;-65
2021/05/28 01:52:19;;;;;;;5.22;0.60;;;;;;;;;;4908365;29;20081;-65
2021/05/28 01:54:47;;;;;;;2.83;0.60;;;;;;;;;;4918018;29;20044;-67
2021/05/28 01:57:13;;;;;;;3.00;0.70;;;;;;;;;;4918779;29;20178;-65
2021/05/28 01:59:39;;;;;;;3.80;0.50;;;;;;;;;;4918268;29;20051;-64
2021/05/28 02:02:06;;;;;;;5.32;0.52;;;;;;;;;;4919723;29;20115;-65
2021/05/28 02:04:32;;;;;;;2.65;1.05;;;;;;;;;;4913796;29;20036;-66
2021/05/28 02:06:58;;;;;;;2.90;0.60;;;;;;;;;;4917791;29;20158;-66
2021/05/28 02:09:23;;;;;;;4.45;0.50;;;;;;;;;;4916878;29;20043;-66
2021/05/28 02:11:49;;;;;;;6.30;0.60;;;;;;;;;;4919527;29;20287;-65
2021/05/28 02:14:15;;;;;;;4.05;0.50;;;;;;;;;;4916000;29;20188;-65
2021/05/28 02:16:41;;;;;;;3.35;0.52;;;;;;;;;;4915739;29;20231;-65
2021/05/28 02:19:08;;;;;;;2.80;0.60;;;;;;;;;;4912073;29;20131;-66
2021/05/28 02:21:34;;;;;;;4.65;0.60;;;;;;;;;;4917464;29;20032;-65
2021/05/28 02:24:00;;;;;;;7.10;0.70;;;;;;;;;;4917826;29;20670;-66
2021/05/28 02:26:26;;;;;;;2.75;0.40;;;;;;;;;;4917147;29;20048;-66
2021/05/28 02:28:52;;;;;;;3.10;0.50;;;;;;;;;;4917135;29;20055;-66
2021/05/28 02:31:18;;;;;;;2.03;0.50;;;;;;;;;;4915979;29;20050;-66
2021/05/28 02:33:43;;;;;;;2.53;0.60;;;;;;;;;;4917516;29;20675;-67
2021/05/28 02:36:10;;;;;;;3.33;0.50;;;;;;;;;;4919075;29;20091;-65
2021/05/28 02:38:36;;;;;;;3.42;0.60;;;;;;;;;;4913451;29;20073;-64
2021/05/28 02:41:02;;;;;;;3.45;0.60;;;;;;;;;;4915768;29;20036;-64
2021/05/28 02:43:28;;;;;;;2.20;0.50;;;;;;;;;;4916249;29;20048;-64
2021/05/28 02:45:54;;;;;;;2.83;0.60;;;;;;;;;;4917902;29;20446;-64
2021/05/28 02:48:20;;;;;;;4.05;0.55;;;;;;;;;;4916282;29;20039;-65
2021/05/28 02:50:46;;;;;;;4.32;0.60;;;;;;;;;;4916348;29;20126;-64
2021/05/28 02:53:12;;;;;;;4.82;0.60;;;;;;;;;;4918360;29;20058;-65
2021/05/28 02:55:38;;;;;;;2.22;0.60;;;;;;;;;;4917691;29;20052;-64
2021/05/28 02:58:04;;;;;;;3.17;0.60;;;;;;;;;;4918583;29;20083;-65
2021/05/28 03:00:30;;;;;;;4.20;0.73;;;;;;;;;;4916676;29;20032;-65
2021/05/28 03:02:57;;;;;;;2.28;0.52;;;;;;;;;;4915146;29;20583;-65
2021/05/28 03:05:22;;;;;;;3.72;0.70;;;;;;;;;;4914836;29;20050;-65
2021/05/28 03:07:48;;;;;;;4.72;0.60;;;;;;;;;;4915175;29;20036;-66
2021/05/28 03:10:14;;;;;;;2.05;0.50;;;;;;;;;;4916948;29;20059;-66
2021/05/28 03:12:40;;;;;;;3.03;0.70;;;;;;;;;;4917166;29;20135;-65
2021/05/28 03:15:06;;;;;;;3.25;0.68;;;;;;;;;;4914951;29;20131;-65
2021/05/28 03:17:33;;;;;;;2.28;0.52;;;;;;;;;;4915227;29;20055;-65
2021/05/28 03:19:58;;;;;;;5.85;0.88;;;;;;;;;;4915889;29;20044;-66
2021/05/28 03:22:34;;;;;;;4.15;0.80;;;;;;;;;;4905700;29;20048;-66
2021/05/28 03:25:04;;;;;;;4.80;0.70;;;;;;;;;;4917158;29;20063;-65
2021/05/28 03:27:30;;;;;;;6.25;0.75;;;;;;;;;;4916738;29;20558;-65
2021/05/28 03:29:56;;;;;;;4.65;0.80;;;;;;;;;;4916254;29;20040;-64
2021/05/28 03:32:23;;;;;;;3.30;0.60;;;;;;;;;;4913616;29;20036;-65
2021/05/28 03:34:49;;;;;;;3.55;0.70;;;;;;;;;;4917950;29;20231;-65
2021/05/28 03:37:15;;;;;;;2.25;0.55;;;;;;;;;;4916734;29;20084;-66
2021/05/28 03:39:40;;;;;;;7.32;0.70;;;;;;;;;;4914357;29;20367;-65
2021/05/28 03:42:06;;;;;;;2.72;0.60;;;;;;;;;;4916793;29;20039;-65
2021/05/28 03:44:32;;;;;;;3.78;0.60;;;;;;;;;;4917076;29;20406;-65
2021/05/28 03:46:58;;;;;;;4.65;0.60;;;;;;;;;;4914788;29;20106;-66
2021/05/28 03:49:24;;;;;;;3.63;0.70;;;;;;;;;;4914040;29;20058;-66
2021/05/28 03:51:50;;;;;;;2.90;0.52;;;;;;;;;;4916489;29;20688;-63
2021/05/28 03:54:15;;;;;;;3.00;0.57;;;;;;;;;;4915569;29;20141;-62
2021/05/28 03:56:41;;;;;;;2.83;0.65;;;;;;;;;;4916111;29;20134;-63
2021/05/28 03:59:07;;;;;;;2.97;0.60;;;;;;;;;;4915024;29;20066;-64
2021/05/28 04:01:33;;;;;;;6.55;0.75;;;;;;;;;;4914876;29;20036;-63
2021/05/28 04:03:59;;;;;;;4.25;0.82;;;;;;;;;;4913257;29;20475;-63
2021/05/28 04:06:25;;;;;;;5.47;0.80;;;;;;;;;;4912724;29;20044;-63
2021/05/28 04:08:51;;;;;;;7.15;0.80;;;;;;;;;;4915355;29;20036;-62
2021/05/28 04:11:17;;;;;;;3.60;0.70;;;;;;;;;;4916854;29;20106;-62
2021/05/28 04:13:43;;;;;;;10.07;0.90;;;;;;;;;;4914784;29;20027;-62
2021/05/28 04:16:09;;;;;;;4.68;0.95;;;;;;;;;;4916085;29;20410;-63
2021/05/28 04:18:35;;;;;;;2.83;0.45;;;;;;;;;;4909612;29;20148;-63
2021/05/28 04:21:00;;;;;;;7.38;0.70;;;;;;;;;;4915245;29;20036;-64
2021/05/28 04:23:26;;;;;;;8.50;0.73;;;;;;;;;;4915060;29;20047;-64
2021/05/28 04:25:52;;;;;;;8.07;0.68;;;;;;;;;;4915103;29;20055;-64
2021/05/28 04:28:18;;;;;;;3.35;0.50;;;;;;;;;;4918767;29;20050;-62
2021/05/28 04:30:44;;;;;;;1.45;0.30;;;;;;;;;;4916711;29;20084;-62
2021/05/28 04:33:10;;;;;;;6.30;0.60;;;;;;;;;;4920874;29;20042;-62
2021/05/28 04:35:36;;;;;;;1.98;0.40;;;;;;;;;;4919033;29;20048;-62
2021/05/28 04:38:02;;;;;;;3.15;0.40;;;;;;;;;;4921301;29;20052;-63
2021/05/28 04:40:29;;;;;;;3.75;0.50;;;;;;;;;;4918052;29;20047;-63
2021/05/28 04:42:55;;;;;;;2.03;0.43;;;;;;;;;;4918933;29;20124;-63
2021/05/28 04:45:21;;;;;;;0.55;0.40;;;;;;;;;;4917198;29;20310;-64
2021/05/28 04:47:47;;;;;;;2.13;0.40;;;;;;;;;;4901824;29;20123;-63
2021/05/28 04:50:13;;;;;;;0.93;0.30;;;;;;;;;;4919830;29;20135;-62
2021/05/28 04:52:40;;;;;;;1.40;0.30;;;;;;;;;;4918983;29;20495;-62
2021/05/28 04:55:06;;;;;;;0.85;0.40;;;;;;;;;;4918421;29;20114;-62
2021/05/28 04:57:32;;;;;;;0.90;0.40;;;;;;;;;;4918686;29;20601;-62
2021/05/28 04:59:58;;;;;;;0.93;0.30;;;;;;;;;;4915745;29;20055;-61
2021/05/28 05:02:24;;;;;;;1.98;0.40;;;;;;;;;;4911059;29;20051;-62
2021/05/28 05:04:50;;;;;;;1.38;0.40;;;;;;;;;;4921645;29;20126;-62
2021/05/28 05:07:16;;;;;;;3.83;0.40;;;;;;;;;;4921255;29;21004;-63
2021/05/28 05:09:41;;;;;;;1.40;0.40;;;;;;;;;;4918609;29;20051;-63
2021/05/28 05:12:07;;;;;;;1.17;0.32;;;;;;;;;;4920425;29;20759;-62
2021/05/28 05:14:33;;;;;;;1.17;0.30;;;;;;;;;;4920689;29;20032;-62
2021/05/28 05:16:59;;;;;;;1.98;0.35;;;;;;;;;;4919821;29;20051;-63
2021/05/28 05:19:25;;;;;;;6.70;0.60;;;;;;;;;;4919820;29;20087;-61
2021/05/28 05:21:52;;;;;;;2.05;0.40;;;;;;;;;;4918993;29;20078;-60
2021/05/28 05:24:19;;;;;;;0.93;0.40;;;;;;;;;;4920310;29;20048;-61
2021/05/28 05:26:44;;;;;;;0.75;0.30;;;;;;;;;;4921256;29;20133;-62
2021/05/28 05:29:11;;;;;;;2.35;0.40;;;;;;;;;;4917525;29;20047;-63
2021/05/28 05:31:39;;;;;;;0.82;0.40;;;;;;;;;;4917569;29;20059;-62
2021/05/28 05:34:05;;;;;;;2.15;0.30;;;;;;;;;;4919291;29;20518;-61
2021/05/28 05:36:33;;;;;;;3.22;0.40;;;;;;;;;;4910803;29;20043;-63
2021/05/28 05:38:58;;;;;;;1.58;0.40;;;;;;;;;;4918098;29;20218;-62
2021/05/28 05:41:25;;;;;;;3.55;0.50;;;;;;;;;;4913663;29;20100;-61
2021/05/28 05:43:51;;;;;;;1.40;0.40;;;;;;;;;;4920563;29;20046;-62
2021/05/28 05:46:25;;;;;;;1.92;0.40;;;;;;;;;;4922394;29;20394;-62
2021/05/28 05:48:50;;;;;;;1.60;0.40;;;;;;;;;;4917624;29;20467;-61
2021/05/28 05:51:16;;;;;;;3.45;0.30;;;;;;;;;;4921203;29;20048;-62
2021/05/28 05:53:42;;;;;;;1.33;0.40;;;;;;;;;;4918122;29;20044;-62
2021/05/28 05:56:08;;;;;;;3.33;0.50;;;;;;;;;;4917372;29;20063;-62
2021/05/28 05:58:34;;;;;;;3.78;0.50;;;;;;;;;;4917423;29;20098;-61
2021/05/28 06:01:00;;;;;;;2.45;0.50;;;;;;;;;;4917286;29;20510;-62
2021/05/28 06:03:26;;;;;;;2.60;0.45;;;;;;;;;;4919825;29;20059;-62
2021/05/28 06:05:52;;;;;;;1.65;0.40;;;;;;;;;;4919353;29;20051;-62
2021/05/28 06:08:17;;;;;;;1.35;0.40;;;;;;;;;;4918171;29;20047;-63
2021/05/28 06:10:43;;;;;;;1.85;0.40;;;;;;;;;;4895714;29;20052;-62
2021/05/28 06:13:09;;;;;;;1.65;0.40;;;;;;;;;;4915768;29;20115;-62
2021/05/28 06:15:35;;;;;;;2.95;0.50;;;;;;;;;;4916525;29;20044;-62
2021/05/28 06:18:02;;;;;;;1.92;0.50;;;;;;;;;;4920826;29;20136;-62
2021/05/28 06:20:28;;;;;;;1.10;0.40;;;;;;;;;;4918185;29;20059;-62
2021/05/28 06:22:56;;;;;;;0.95;0.35;;;;;;;;;;4918500;29;20051;-62
2021/05/28 06:25:21;;;;;;;0.95;0.30;;;;;;;;;;4917814;29;20127;-62
2021/05/28 06:27:47;;;;;;;1.80;0.45;;;;;;;;;;4917968;29;20042;-62
2021/05/28 06:30:13;;;;;;;1.58;0.40;;;;;;;;;;4916090;29;20131;-60
2021/05/28 06:32:39;;;;;;;1.52;0.40;;;;;;;;;;4915846;29;20071;-62
2021/05/28 06:35:06;;;;;;;2.88;0.50;;;;;;;;;;4918513;29;20044;-62
2021/05/28 06:37:32;;;;;;;1.83;0.40;;;;;;;;;;4917194;29;20055;-61
2021/05/28 06:39:58;;;;;;;0.88;0.40;;;;;;;;;;4916772;29;20403;-62
2021/05/28 06:42:24;;;;;;;1.48;0.40;;;;;;;;;;4917393;29;20131;-62
2021/05/28 06:44:50;;;;;;;1.10;0.40;;;;;;;;;;4917484;29;20031;-62
2021/05/28 06:47:17;;;;;;;0.95;0.40;;;;;;;;;;4917374;29;20044;-61
2021/05/28 06:49:43;;;;;;;1.00;0.40;;;;;;;;;;4916257;29;20559;-61
2021/05/28 06:52:09;;;;;;;1.60;0.43;;;;;;;;;;4915585;29;20055;-62
2021/05/28 06:54:35;;;;;;;4.43;0.50;;;;;;;;;;4916171;29;20044;-62
2021/05/28 06:57:01;;;;;;;4.38;0.57;;;;;;;;;;4916922;29;20520;-61
2021/05/28 06:59:28;;;;;;;4.15;0.50;;;;;;;;;;4915295;29;20047;-61
2021/05/28 07:01:56;;;;;;;3.05;0.50;;;;;;;;;;4917388;29;20044;-61
2021/05/28 07:04:22;;;;;;;2.25;0.50;;;;;;;;;;4917234;29;20044;-63
2021/05/28 07:06:48;;;;;;;2.70;0.60;;;;;;;;;;4918796;29;20095;-61
2021/05/28 07:09:14;;;;;;;2.33;0.50;;;;;;;;;;4915999;29;20123;-62
2021/05/28 07:11:40;;;;;;;4.43;0.70;;;;;;;;;;4917347;29;20044;-62
2021/05/28 07:14:06;;;;;;;5.50;1.25;;;;;;;;;;4914971;29;20380;-63
2021/05/28 07:16:32;;;;;;;1.27;0.40;;;;;;;;;;4915464;29;20039;-63
2021/05/28 07:18:57;;;;;;;2.63;0.52;;;;;;;;;;4916285;29;20052;-59
2021/05/28 07:21:27;;;;;;;1.05;0.40;;;;;;;;;;4916153;29;20047;-62
2021/05/28 07:23:53;;;;;;;3.30;0.50;;;;;;;;;;4916789;29;20178;-63
2021/05/28 07:26:18;;;;;;;2.45;0.50;;;;;;;;;;4915922;29;20066;-67
2021/05/28 07:28:44;;;;;;;0.82;0.40;;;;;;;;;;4914762;29;20040;-62
2021/05/28 07:31:10;;;;;;;4.22;0.60;;;;;;;;;;4915459;29;20055;-62
2021/05/28 07:33:37;;;;;;;3.42;0.40;;;;;;;;;;4915451;29;20511;-63
2021/05/28 07:36:03;;;;;;;1.45;0.40;;;;;;;;;;4915450;29;20131;-61
2021/05/28 07:38:29;;;;;;;1.67;0.38;;;;;;;;;;4914434;29;20410;-62
2021/05/28 07:40:55;;;;;;;0.60;0.30;;;;;;;;;;4916361;29;20044;-62
2021/05/28 07:43:20;;;;;;;0.55;0.35;;;;;;;;;;4916808;29;20064;-62
2021/05/28 07:45:50;;;;;;;1.35;0.40;;;;;;;;;;4916639;29;20115;-62
2021/05/28 07:48:17;;;;;;;1.50;0.40;;;;;;;;;;4916677;29;20035;-63
2021/05/28 07:50:46;;;;;;;0.85;0.38;;;;;;;;;;4915952;29;20130;-62
2021/05/28 07:53:13;;;;;;;0.98;0.30;;;;;;;;;;4914894;29;20036;-62
2021/05/28 07:55:39;;;;;;;1.10;0.40;;;;;;;;;;4915030;29;20062;-63
2021/05/28 07:58:05;;;;;;;1.75;0.50;;;;;;;;;;4915764;29;20062;-62
2021/05/28 08:00:30;;;;;;;0.65;0.30;;;;;;;;;;4915247;29;20373;-62
2021/05/28 08:02:56;;;;;;;1.88;0.40;;;;;;;;;;4917630;29;20036;-62
2021/05/28 08:05:22;;;;;;;1.10;0.40;;;;;;;;;;4919592;29;20067;-62
2021/05/28 08:07:48;;;;;;;2.08;0.65;;;;;;;;;;4919301;29;20048;-62
2021/05/28 08:10:14;;;;;;;3.90;0.40;;;;;;;;;;4918416;29;20055;-63
2021/05/28 08:12:40;;;;;;;1.85;0.40;;;;;;;;;;4917285;29;20071;-61
2021/05/28 08:15:07;;;;;;;2.75;0.50;;;;;;;;;;4920187;29;20146;-62
2021/05/28 08:17:33;;;;;;;1.70;0.50;;;;;;;;;;4918231;29;20063;-62
2021/05/28 08:19:59;;;;;;;2.50;0.60;;;;;;;;;;4916246;29;20494;-62
2021/05/28 08:22:24;;;;;;;1.63;0.45;;;;;;;;;;4917823;29;20075;-62
2021/05/28 08:24:50;;;;;;;1.45;0.40;;;;;;;;;;4919970;29;20172;-62
2021/05/28 08:27:19;;;;;;;2.47;0.50;;;;;;;;;;4919097;29;20971;-62
2021/05/28 08:29:45;;;;;;;2.85;0.43;;;;;;;;;;4919431;29;20040;-60
2021/05/28 08:32:10;;;;;;;1.42;0.50;;;;;;;;;;4919187;29;20526;-62
2021/05/28 08:34:36;;;;;;;2.03;0.50;;;;;;;;;;4920086;29;20059;-62
2021/05/28 08:37:02;;;;;;;1.75;0.50;;;;;;;;;;4919344;29;20451;-62
2021/05/28 08:39:28;;;;;;;3.70;0.40;;;;;;;;;;4918546;29;20510;-63
2021/05/28 08:41:54;;;;;;;3.22;0.50;;;;;;;;;;4919849;29;20043;-62
2021/05/28 08:44:24;;;;;;;1.88;0.40;;;;;;;;;;4919006;29;20398;-63
2021/05/28 08:46:54;;;;;;;1.58;0.40;;;;;;;;;;4919300;29;20048;-62
2021/05/28 08:49:20;;;;;;;3.13;0.50;;;;;;;;;;4919163;29;20439;-61
2021/05/28 08:51:46;;;;;;;1.77;0.50;;;;;;;;;;4920787;29;20067;-61
2021/05/28 08:54:12;;;;;;;1.52;0.50;;;;;;;;;;4919244;29;20131;-61
2021/05/28 08:56:38;;;;;;;2.53;0.57;;;;;;;;;;4917724;29;20066;-62
2021/05/28 08:59:04;;;;;;;3.05;0.45;;;;;;;;;;4916847;29;20060;-62
2021/05/28 09:01:30;;;;;;;1.15;0.40;;;;;;;;;;4917505;29;20041;-62
2021/05/28 09:04:00;;;;;;;1.25;0.47;;;;;;;;;;4918517;29;20067;-59
2021/05/28 09:06:36;;;;;;;1.55;0.50;;;;;;;;;;4919333;29;20052;-62
2021/05/28 09:09:10;;;;;;;0.98;0.40;;;;;;;;;;4918975;29;20040;-61
2021/05/28 09:11:55;;;;;;;1.45;0.45;;;;;;;;;;4901968;29;20067;-61
2021/05/28 09:14:30;;;;;;;2.22;0.40;;;;;;;;;;4897836;29;20083;-64
2021/05/28 09:16:56;;;;;;;1.83;0.40;;;;;;;;;;4899832;29;20068;-61
2021/05/28 09:19:25;;;;;;;1.33;0.40;;;;;;;;;;4898896;29;20055;-61
2021/05/28 09:21:58;;;;;;;2.55;0.50;;;;;;;;;;4898757;29;20476;-62
2021/05/28 09:24:27;;;;;;;0.93;0.40;;;;;;;;;;4897992;29;23209;-61
2021/05/28 09:26:53;;;;;;;1.00;0.40;;;;;;;;;;4899186;29;20044;-62
2021/05/28 09:29:19;;;;;;;1.58;0.47;;;;;;;;;;4899714;29;20055;-62
2021/05/28 09:31:46;;;;;;;1.42;0.40;;;;;;;;;;4899740;29;20756;-62
2021/05/28 09:34:11;;;;;;;4.65;0.70;;;;;;;;;;4899653;29;20871;-62
2021/05/28 09:36:39;;;;;;;1.95;0.50;;;;;;;;;;4899124;29;20044;-61
2021/05/28 09:39:09;;;;;;;3.20;0.60;;;;;;;;;;4897529;29;20048;-62
2021/05/28 09:41:41;;;;;;;2.70;0.50;;;;;;;;;;4909405;29;20047;-62
2021/05/28 09:44:07;;;;;;;2.17;0.50;;;;;;;;;;4899705;29;20044;-61
2021/05/28 09:46:33;;;;;;;3.53;0.50;;;;;;;;;;4898585;29;20044;-61
2021/05/28 09:49:11;;;;;;;1.58;0.40;;;;;;;;;;4898859;29;20048;-61
2021/05/28 09:51:37;;;;;;;2.25;0.57;;;;;;;;;;4896927;29;20066;-56
2021/05/28 09:54:13;;;;;;;2.08;0.50;;;;;;;;;;4898939;29;20068;-57
2021/05/28 09:56:39;;;;;;;1.20;0.40;;;;;;;;;;4898020;29;20091;-56
2021/05/28 09:59:07;;;;;;;1.15;0.40;;;;;;;;;;4898258;29;20060;-54
2021/05/28 10:01:34;;;;;;;2.92;0.45;;;;;;;;;;4897951;29;20041;-57
2021/05/28 10:04:01;;;;;;;5.97;1.15;;;;;;;;;;4897013;29;20056;-55
2021/05/28 10:06:28;;;;;;;2.72;0.60;;;;;;;;;;4898606;29;20104;-57
2021/05/28 10:08:56;;;;;;;1.73;0.40;;;;;;;;;;4897900;29;20068;-57
2021/05/28 10:11:22;;;;;;;2.42;0.60;;;;;;;;;;4916956;29;20040;-56
2021/05/28 10:13:48;;;;;;;0.90;0.40;;;;;;;;;;4916459;29;20051;-55
2021/05/28 10:16:14;;;;;;;1.05;0.40;;;;;;;;;;4916092;29;20036;-56
2021/05/28 10:18:40;;;;;;;2.65;0.40;;;;;;;;;;4915337;29;20507;-55
2021/05/28 10:21:06;;;;;;;2.05;0.50;;;;;;;;;;4918596;29;20051;-56
2021/05/28 10:23:32;;;;;;;2.10;0.47;;;;;;;;;;4917066;29;20510;-56
2021/05/28 10:25:58;;;;;;;1.58;0.40;;;;;;;;;;4917273;29;20533;-59
2021/05/28 10:28:33;;;;;;;1.58;0.40;;;;;;;;;;4916526;29;20079;-56
2021/05/28 10:30:59;;;;;;;0.38;0.35;;;;;;;;;;4916610;29;20036;-56
2021/05/28 10:33:26;;;;;;;1.05;0.30;;;;;;;;;;4917565;29;20051;-55
2021/05/28 10:35:56;;;;;;;2.47;0.50;;;;;;;;;;4915846;29;20179;-55
2021/05/28 10:38:34;;;;;;;2.25;0.47;;;;;;;;;;4916029;29;20039;-53
2021/05/28 10:41:00;;;;;;;1.55;0.50;;;;;;;;;;4916651;29;20047;-55
2021/05/28 10:43:27;;;;;;;3.08;0.63;;;;;;;;;;4918062;29;20384;-56
2021/05/28 10:45:58;;;;;;;3.47;0.40;;;;;;;;;;4916291;29;20479;-56
2021/05/28 10:48:40;;;;;;;2.78;0.50;;;;;;;;;;4915283;29;20052;-56
2021/05/28 10:51:06;;;;;;;2.78;0.50;;;;;;;;;;4916510;29;20047;-56
2021/05/28 10:53:32;;;;;;;1.83;0.50;;;;;;;;;;4915912;29;20039;-56
2021/05/28 10:56:01;;;;;;;2.50;0.50;;;;;;;;;;4915017;29;20082;-56
2021/05/28 10:58:58;;;;;;;5.65;0.52;;;;;;;;;;4915156;29;20071;-56
2021/05/28 11:01:33;;;;;;;2.15;0.50;;;;;;;;;;4897997;29;20047;-56
2021/05/28 11:03:59;;;;;;;3.70;0.50;;;;;;;;;;4916631;29;20387;-53
2021/05/28 11:06:25;;;;;;;2.90;0.45;;;;;;;;;;4916115;29;20043;-56
2021/05/28 11:08:56;;;;;;;3.03;0.40;;;;;;;;;;4915506;29;20052;-55
2021/05/28 11:11:43;;;;;;;6.82;0.50;;;;;;;;;;4914124;29;20048;-55
2021/05/28 11:14:09;;;;;;;2.75;0.60;;;;;;;;;;4916746;29;20043;-56
2021/05/28 11:17:07;;;;;;;2.95;0.50;;;;;;;;;;4914932;29;20059;-52
2021/05/28 11:19:34;;;;;;;1.05;0.40;;;;;;;;;;4902575;29;20047;-56
2021/05/28 11:22:02;;;;;;;2.05;0.38;;;;;;;;;;4916968;29;20048;-55
2021/05/28 11:24:50;;;;;;;2.20;0.45;;;;;;;;;;4916208;29;20086;-56
2021/05/28 11:27:23;;;;;;;3.08;0.50;;;;;;;;;;4917220;29;20404;-57
2021/05/28 11:29:56;;;;;;;6.32;0.60;;;;;;;;;;4915710;29;20063;-62
2021/05/28 11:32:43;;;;;;;2.33;0.50;;;;;;;;;;4915860;29;20054;-55
2021/05/28 11:35:08;;;;;;;1.50;0.40;;;;;;;;;;4916676;29;20046;-58
2021/05/28 11:37:43;;;;;;;3.38;0.70;;;;;;;;;;4915056;29;20047;-55
2021/05/28 11:40:16;;;;;;;2.90;0.52;;;;;;;;;;4916047;29;20063;-54
2021/05/28 11:42:42;;;;;;;4.30;0.50;;;;;;;;;;4913113;29;20051;-56
2021/05/28 11:45:09;;;;;;;2.13;0.82;;;;;;;;;;4916206;29;20295;-56
2021/05/28 11:47:37;;;;;;;4.00;0.60;;;;;;;;;;4913350;29;20056;-57
2021/05/28 11:50:04;;;;;;;2.85;0.55;;;;;;;;;;4918743;29;20107;-54
2021/05/28 11:52:30;;;;;;;2.42;0.50;;;;;;;;;;4898879;29;20044;-56
2021/05/28 11:55:05;;;;;;;4.07;0.52;;;;;;;;;;4917608;29;20036;-56
2021/05/28 11:57:31;;;;;;;3.50;0.60;;;;;;;;;;4917194;29;20078;-56
2021/05/28 11:59:57;;;;;;;6.45;0.50;;;;;;;;;;4915652;29;20147;-53
2021/05/28 12:02:46;;;;;;;0.82;0.40;;;;;;;;;;4916942;29;20528;-55
2021/05/28 12:05:17;;;;;;;1.70;0.50;;;;;;;;;;4916304;29;20559;-53
2021/05/28 12:07:44;;;;;;;6.55;0.70;;;;;;;;;;4915611;29;20052;-55
2021/05/28 12:10:11;;;;;;;4.20;0.50;;;;;;;;;;4916235;29;20044;-58
2021/05/28 12:12:50;;;;;;;2.25;0.40;;;;;;;;;;4914614;29;20047;-55
2021/05/28 12:15:16;;;;;;;7.72;0.50;;;;;;;;;;4914332;29;20063;-55
2021/05/28 12:17:42;;;;;;;4.90;0.60;;;;;;;;;;4916623;29;20175;-55
2021/05/28 12:20:19;;;;;;;3.10;0.50;;;;;;;;;;4914067;29;20044;-56
2021/05/28 12:23:01;;;;;;;3.95;0.60;;;;;;;;;;4916549;29;20091;-56
2021/05/28 12:25:31;;;;;;;4.43;0.60;;;;;;;;;;4915793;29;20059;-53
2021/05/28 12:28:13;;;;;;;1.58;0.50;;;;;;;;;;4914866;29;20051;-55
2021/05/28 12:30:40;;;;;;;3.27;0.47;;;;;;;;;;4915688;29;20791;-56
2021/05/28 12:33:06;;;;;;;4.10;0.65;;;;;;;;;;4915022;29;20051;-55
2021/05/28 12:35:32;;;;;;;1.75;0.40;;;;;;;;;;4915976;29;20520;-53
2021/05/28 12:38:05;;;;;;;3.90;0.57;;;;;;;;;;4916140;29;20074;-57
2021/05/28 12:40:31;;;;;;;1.67;0.43;;;;;;;;;;4918811;29;20071;-56
2021/05/28 12:42:57;;;;;;;3.42;0.63;;;;;;;;;;4916301;29;20487;-57
2021/05/28 12:45:36;;;;;;;1.92;0.50;;;;;;;;;;4914199;29;20047;-55
2021/05/28 12:48:02;;;;;;;4.07;0.60;;;;;;;;;;4915663;29;20562;-55
2021/05/28 12:50:33;;;;;;;7.78;0.60;;;;;;;;;;4918906;29;20655;-56
2021/05/28 12:53:00;;;;;;;2.80;0.60;;;;;;;;;;4917433;29;20082;-54
2021/05/28 12:55:27;;;;;;;3.72;0.60;;;;;;;;;;4915654;29;20430;-54
2021/05/28 12:57:53;;;;;;;3.58;0.60;;;;;;;;;;4917358;29;22284;-57
2021/05/28 13:00:38;;;;;;;6.00;0.65;;;;;;;;;;4919083;29;20039;-57
2021/05/28 13:03:04;;;;;;;4.15;0.50;;;;;;;;;;4918805;29;20078;-58
2021/05/28 13:05:31;;;;;;;2.85;0.73;;;;;;;;;;4917101;29;20466;-57
2021/05/28 13:07:57;;;;;;;1.63;0.38;;;;;;;;;;4916688;29;20637;-56
2021/05/28 13:10:24;;;;;;;5.35;0.68;;;;;;;;;;4917891;29;20048;-58
2021/05/28 13:12:53;;;;;;;4.13;0.50;;;;;;;;;;4916885;29;20047;-53
2021/05/28 13:15:24;;;;;;;3.67;0.50;;;;;;;;;;4916562;29;20044;-55
2021/05/28 13:17:57;;;;;;;1.52;0.40;;;;;;;;;;4912228;29;20047;-52
2021/05/28 13:20:25;;;;;;;;;;;;;;;;;;4917046;29;20100;-55
2021/05/28 13:22:51;;;;;;;2.10;0.40;;;;;;;;;;4919074;29;19934;-54
2021/05/28 13:25:17;;;;;;;1.00;0.40;;;;;;;;;;4915673;29;20111;-58
2021/05/28 13:27:44;;;;;;;2.88;0.40;;;;;;;;;;4917498;29;20502;-53
2021/05/28 13:30:10;;;;;;;1.13;0.35;;;;;;;;;;4916953;29;20044;-53
2021/05/28 13:32:40;;;;;;;4.50;0.68;;;;;;;;;;4914897;28;20730;-51
2021/05/28 13:35:08;;;;;;;5.72;0.60;;;;;;;;;;4916938;29;20036;-55
2021/05/28 13:37:34;;;;;;;1.75;0.40;;;;;;;;;;4916004;29;20050;-55
2021/05/28 13:40:00;;;;;;;9.20;1.05;;;;;;;;;;4914959;29;20043;-55
2021/05/28 13:42:27;;;;;;;6.25;0.57;;;;;;;;;;4915564;29;20134;-52
2021/05/28 13:44:56;;;;;;;6.75;0.63;;;;;;;;;;4916540;29;20520;-52
2021/05/28 13:47:22;;;;;;;2.13;0.85;;;;;;;;;;4915279;29;20063;-55
2021/05/28 13:49:48;;;;;;;2.28;0.50;;;;;;;;;;4917588;29;20911;-55
2021/05/28 13:52:14;;;;;;;3.55;0.60;;;;;;;;;;4915746;29;20044;-52
2021/05/28 13:54:40;;;;;;;3.42;0.50;;;;;;;;;;4914764;29;20035;-56
2021/05/28 13:57:06;;;;;;;4.70;0.50;;;;;;;;;;4915807;29;20131;-51
2021/05/28 13:59:33;;;;;;;3.78;0.50;;;;;;;;;;4916522;29;20047;-54
2021/05/28 14:01:59;;;;;;;4.13;0.50;;;;;;;;;;4897661;29;20050;-55
2021/05/28 14:04:25;;;;;;;2.05;0.50;;;;;;;;;;4916076;29;20796;-53
2021/05/28 14:06:51;;;;;;;3.65;0.60;;;;;;;;;;4917492;29;20191;-52
2021/05/28 14:09:17;;;;;;;3.42;0.50;;;;;;;;;;4913457;29;20056;-59
2021/05/28 14:11:43;;;;;;;2.90;0.50;;;;;;;;;;4917120;29;20043;-56
2021/05/28 14:14:08;;;;;;;3.33;0.57;;;;;;;;;;4915306;29;20078;-52
2021/05/28 14:16:34;;;;;;;1.52;0.50;;;;;;;;;;4915805;29;20038;-54
2021/05/28 14:19:00;;;;;;;5.82;0.70;;;;;;;;;;4911387;29;20749;-56
2021/05/28 14:21:26;;;;;;;4.47;0.70;;;;;;;;;;4917586;29;20255;-55
2021/05/28 14:23:52;;;;;;;7.00;0.50;;;;;;;;;;4914797;29;20359;-54
2021/05/28 14:26:18;;;;;;;4.65;0.60;;;;;;;;;;4914803;29;20494;-56
2021/05/28 14:28:44;;;;;;;2.92;0.50;;;;;;;;;;4914560;29;20714;-53
2021/05/28 14:31:10;;;;;;;4.45;0.60;;;;;;;;;;4918027;29;20103;-56
2021/05/28 14:33:49;;;;;;;2.78;0.50;;;;;;;;;;4914626;29;20035;-56
2021/05/28 14:36:16;;;;;;;2.03;0.50;;;;;;;;;;4916001;29;20257;-52
2021/05/28 14:38:42;;;;;;;2.83;0.70;;;;;;;;;;4918637;29;20090;-54
2021/05/28 14:41:08;;;;;;;2.08;0.50;;;;;;;;;;4920980;29;20932;-56
2021/05/28 14:43:34;;;;;;;2.10;0.40;;;;;;;;;;4917670;29;20047;-52